Flight Track Log - Related Links

Times and Time Zones

All times are in EDT time to prevent confusion due to time zone crossing. See the UAL332 flight status page for this flight to view local times or setup timezone preferences in your user account.

Time Position Orientation Groundspeed Altitude Reporting Facility
EDT Latitude Longitude Course Direction KTS MPH feet Rate Location/Type
Fri 08:57:41 PM 38.6500 -121.5167 76° East 213 245 2,000  Level Northern Cal TRACON
Fri 08:58:00 PM 38.7695 -121.3000 142° Southeast  Level Estimated
Fri 08:58:41 PM 38.6167 -121.4500 123° Southeast 260 299 4,600  Level Northern Cal TRACON
Fri 08:59:00 PM 38.8063 -121.1543 80° East  Level Estimated
Fri 09:00:00 PM 38.8429 -121.0085 76° East  Level Estimated
Fri 09:00:19 PM 38.6042 -121.3008 96° East 281 323 9,100  Level Oakland Center
Fri 09:01:00 PM 38.8793 -120.8626 78° East  Level Estimated
Fri 09:01:20 PM 38.6050 -121.1975 89° East 292 336 11,300  Level Oakland Center
Fri 09:02:00 PM 38.7688 -120.8047 158° South  Level FlightAware Approximate
Fri 09:02:22 PM 38.6058 -121.0522 90° East 370 426 13,800  Level Oakland Center
Fri 09:03:00 PM 38.8055 -120.6590 76° East  Level Estimated
Fri 09:03:23 PM 38.6053 -120.9214 90° East 368 423 17,800  Level Oakland Center
Fri 09:04:24 PM 38.6044 -120.7889 90° East 372 428 18,600 1,512 Climbing Oakland Center
Fri 09:05:26 PM 38.6047 -120.6411 90° East 410 472 20,900 2,390 Climbing Oakland Center
Fri 09:06:27 PM 38.6039 -120.5025 90° East 393 452 23,500 1,967 Climbing Oakland Center
Fri 09:07:28 PM 38.6033 -120.3600 90° East 399 459 24,900 1,463 Climbing Oakland Center
Fri 09:08:30 PM 38.6011 -120.1847 91° East 410 472 26,500 1,415 Climbing Oakland Center
Fri 09:09:31 PM 38.6042 -120.0364 88° East 415 478 27,800 1,230 Climbing Oakland Center
Fri 09:10:32 PM 38.6239 -119.8878 80° East 420 483 29,000 1,073 Climbing Oakland Center
Fri 09:11:34 PM 38.6419 -119.7406 81° East 430 495 30,000 1,122 Climbing Oakland Center
Fri 09:12:35 PM 38.6600 -119.5886 81° East 434 499 31,300 1,230 Climbing Oakland Center
Fri 09:13:36 PM 38.6783 -119.4367 81° East 434 499 32,500 1,024 Climbing Oakland Center
Fri 09:14:38 PM 38.6964 -119.2844 81° East 435 501 33,400 1,024 Climbing Oakland Center
Fri 09:15:39 PM 38.7183 -119.1014 81° East 434 499 34,600 1,033 Climbing Oakland Center
Fri 09:16:40 PM 38.7361 -118.9500 81° East 434 499 35,500 878 Climbing Oakland Center
Fri 09:17:42 PM 38.7531 -118.7986 82° East 432 497 36,400 732 Climbing Oakland Center
Fri 09:18:43 PM 38.7708 -118.6461 81° East 436 502 37,000 293 Climbing Oakland Center
Fri 09:19:45 PM 38.7881 -118.4944 82° East 435 501 37,000  Level Oakland Center
Fri 09:20:46 PM 38.8058 -118.3367 82° East 447 514 37,000  Level Oakland Center
Fri 09:21:47 PM 38.8242 -118.1781 82° East 451 519 37,000  Level Oakland Center
Fri 09:22:49 PM 38.8406 -118.0197 82° East 450 518 37,000  Level Oakland Center
Fri 09:23:50 PM 38.8614 -117.8325 82° East 446 513 37,000  Level Oakland Center
Fri 09:24:51 PM 38.8781 -117.6742 82° East 445 512 37,000  Level Oakland Center
Fri 09:25:53 PM 38.8936 -117.5172 83° East 443 510 37,000  Level Oakland Center
Fri 09:26:54 PM 38.9094 -117.3617 82° East 448 516 37,000  Level Oakland Center
Fri 09:27:56 PM 38.9250 -117.2042 83° East 446 513 37,000  Level Oakland Center
Fri 09:28:57 PM 38.9419 -117.0400 82° East 447 514 37,000  Level Oakland Center
Fri 09:29:59 PM 38.9578 -116.8819 83° East 445 512 37,000  Level Oakland Center
Fri 09:30:49 PM 38.9694 -116.7561 83° East 445 512 37,000  Level Salt Lake Center
Fri 09:31:50 PM 38.9847 -116.5975 83° East 445 512 37,000  Level Salt Lake Center
Fri 09:32:52 PM 38.9997 -116.4386 83° East 447 514 37,000  Level Salt Lake Center
Fri 09:33:53 PM 39.0172 -116.2481 83° East 447 514 37,000  Level Salt Lake Center
Fri 09:34:55 PM 39.0319 -116.0881 83° East 450 518 37,000  Level Salt Lake Center
Fri 09:35:56 PM 39.0458 -115.9289 84° East 449 517 37,000  Level Salt Lake Center
Fri 09:36:58 PM 39.0597 -115.7711 83° East 445 512 37,000  Level Salt Lake Center
Fri 09:37:59 PM 39.0747 -115.6117 83° East 447 514 37,000  Level Salt Lake Center
Fri 09:39:01 PM 39.0875 -115.4528 84° East 446 513 37,000  Level Salt Lake Center
Fri 09:40:03 PM 39.1031 -115.2906 83° East 453 521 37,000  Level Salt Lake Center
Fri 09:41:04 PM 39.1161 -115.1306 84° East 451 519 37,000  Level Salt Lake Center
Fri 09:42:06 PM 39.1278 -114.9722 85° East 446 513 37,000  Level Salt Lake Center
Fri 09:43:07 PM 39.1439 -114.7803 84° East 448 516 37,000  Level Salt Lake Center
Fri 09:44:09 PM 39.1575 -114.6197 84° East 451 519 37,000 -48 Level Salt Lake Center
Fri 09:45:11 PM 39.1697 -114.4625 84° East 443 510 36,900  Descending Salt Lake Center
Fri 09:46:12 PM 39.1817 -114.3033 84° East 443 510 37,000 49 Climbing Salt Lake Center
Fri 09:47:14 PM 39.1939 -114.1444 84° East 444 511 37,000  Level Salt Lake Center
Fri 09:48:16 PM 39.2056 -113.9858 85° East 445 512 37,000  Level Salt Lake Center
Fri 09:49:17 PM 39.2167 -113.8292 85° East 441 507 37,000  Level Salt Lake Center
Fri 09:50:19 PM 39.2286 -113.6719 84° East 440 506 37,000  Level Salt Lake Center
Fri 09:51:21 PM 39.2400 -113.4831 85° East 442 509 37,000  Level Salt Lake Center
Fri 09:52:22 PM 39.2506 -113.3253 85° East 442 509 37,000  Level Salt Lake Center
Fri 09:53:24 PM 39.2617 -113.1664 85° East 444 511 37,000  Level Salt Lake Center
Fri 09:54:26 PM 39.2714 -113.0053 85° East 448 516 37,000  Level Salt Lake Center
Fri 09:55:27 PM 39.2814 -112.8467 85° East 445 512 37,000  Level Salt Lake Center
Fri 09:56:29 PM 39.2922 -112.6875 85° East 445 512 37,000  Level Salt Lake Center
Fri 09:57:30 PM 39.3042 -112.5258 84° East 445 512 37,000  Level Salt Lake Center
Fri 09:58:32 PM 39.3403 -112.3758 73° East 441 507 37,000  Level Salt Lake Center
Fri 09:59:34 PM 39.3914 -112.1994 69° East 438 504 37,000  Level Salt Lake Center
Fri 10:00:35 PM 39.4342 -112.0508 70° East 441 507 37,000  Level Salt Lake Center
Fri 10:01:37 PM 39.4756 -111.9019 70° East 442 509 37,000  Level Salt Lake Center
Fri 10:02:39 PM 39.5178 -111.7547 70° East 440 506 37,000  Level Salt Lake Center
Fri 10:03:40 PM 39.5592 -111.6069 70° East 439 505 37,000  Level Salt Lake Center
Fri 10:04:42 PM 39.5992 -111.4558 71° East 443 510 37,000  Level Salt Lake Center
Fri 10:05:44 PM 39.6411 -111.3067 70° East 442 509 37,000  Level Salt Lake Center
Fri 10:06:45 PM 39.6850 -111.1433 71° East 442 509 37,000  Level Salt Lake Center
Fri 10:07:47 PM 39.7311 -110.9758 70° East 441 507 37,000  Level Salt Lake Center
Fri 10:08:48 PM 39.7700 -110.8322 71° East 440 506 37,000  Level Salt Lake Center
Fri 10:09:50 PM 39.8153 -110.6644 71° East 441 507 37,000  Level Salt Lake Center
Fri 10:10:52 PM 39.8531 -110.5194 71° East 441 507 37,000  Level Salt Lake Center
Fri 10:11:53 PM 39.8917 -110.3758 71° East 440 506 37,000  Level Salt Lake Center
Fri 10:12:55 PM 39.9367 -110.2053 71° East 445 512 37,000  Level Salt Lake Center
Fri 10:13:57 PM 39.9744 -110.0600 71° East 443 510 37,000  Level Salt Lake Center
Fri 10:14:58 PM 40.0192 -109.8894 71° East 443 510 37,000  Level Salt Lake Center
Fri 10:16:00 PM 40.0558 -109.7439 72° East 442 509 37,000  Level Salt Lake Center
Fri 10:17:02 PM 40.0933 -109.5983 71° East 441 507 37,000  Level Salt Lake Center
Fri 10:17:37 PM 40.1197 -109.4981 71° East 442 509 37,000  Level Denver Center
Fri 10:18:03 PM 40.1367 -109.4292 72° East 439 505 37,000  Level Salt Lake Center
Fri 10:19:05 PM 40.1744 -109.2861 71° East 434 499 37,000  Level Salt Lake Center
Fri 10:20:07 PM 40.2158 -109.1169 72° East 436 502 37,000  Level Salt Lake Center
Fri 10:20:43 PM 40.2347 -109.0422 72° East 436 502 37,000  Level Denver Center
Fri 10:21:44 PM 40.2772 -108.8728 72° East 437 503 37,000  Level Denver Center
Fri 10:22:10 PM 40.2883 -108.8269 72° East 437 503 37,000  Level Salt Lake Center
Fri 10:23:11 PM 40.3283 -108.6658 72° East 435 501 37,000  Level Salt Lake Center
Fri 10:23:48 PM 40.3547 -108.5600 72° East 433 498 37,000  Level Denver Center
Fri 10:24:50 PM 40.3889 -108.4164 73° East 431 496 37,000  Level Denver Center
Fri 10:25:15 PM 40.4047 -108.3556 71° East 433 498 37,000  Level Salt Lake Center
Fri 10:26:16 PM 40.4444 -108.1900 72° East 429 494 37,000  Level Salt Lake Center
Fri 10:26:54 PM 40.4642 -108.1069 73° East 426 490 37,000  Level Denver Center
Fri 10:27:56 PM 40.4986 -107.9622 73° East 431 496 37,000  Level Denver Center
Fri 10:28:57 PM 40.5389 -107.7950 72° East 430 495 37,000  Level Denver Center
Fri 10:29:59 PM 40.5736 -107.6517 72° East 430 495 37,000  Level Denver Center
Fri 10:31:01 PM 40.6125 -107.4833 73° East 431 496 37,000  Level Denver Center
Fri 10:32:03 PM 40.6461 -107.3389 73° East 430 495 37,000  Level Denver Center
Fri 10:33:05 PM 40.6808 -107.1892 73° East 430 495 37,000  Level Denver Center
Fri 10:34:07 PM 40.7169 -107.0358 73° East 434 499 37,000  Level Denver Center
Fri 10:35:09 PM 40.7550 -106.8717 73° East 430 495 37,000  Level Denver Center
Fri 10:36:10 PM 40.7933 -106.7031 73° East 433 498 37,000  Level Denver Center
Fri 10:37:12 PM 40.8267 -106.5567 73° East 436 502 37,000  Level Denver Center
Fri 10:38:14 PM 40.8575 -106.4114 74° East 432 497 37,000  Level Denver Center
Fri 10:39:16 PM 40.8958 -106.2414 73° East 433 498 37,000  Level Denver Center
Fri 10:40:17 PM 40.9339 -106.0750 73° East 434 499 37,000  Level Denver Center
Fri 10:41:19 PM 40.9661 -105.9217 74° East 431 496 37,000  Level Denver Center
Fri 10:42:20 PM 41.0003 -105.7669 74° East 431 496 37,000  Level Denver Center
Fri 10:43:22 PM 41.0319 -105.6186 74° East 436 502 37,000  Level Denver Center
Fri 10:44:24 PM 41.0681 -105.4497 74° East 430 495 37,000  Level Denver Center
Fri 10:45:25 PM 41.0994 -105.3011 74° East 433 498 37,000  Level Denver Center
Fri 10:46:27 PM 41.1311 -105.1561 74° East 431 496 37,000  Level Denver Center
Fri 10:47:29 PM 41.1667 -104.9842 75° East 434 499 37,000  Level Denver Center
Fri 10:48:30 PM 41.1964 -104.8364 75° East 433 498 37,000  Level Denver Center
Fri 10:49:32 PM 41.2308 -104.6661 75° East 429 494 37,000  Level Denver Center
Fri 10:50:33 PM 41.2578 -104.5178 76° East 432 497 37,000  Level Denver Center
Fri 10:51:35 PM 41.2875 -104.3469 77° East 426 490 37,000  Level Denver Center
Fri 10:52:37 PM 41.3147 -104.1975 76° East 433 498 37,000  Level Denver Center
Fri 10:53:38 PM 41.3408 -104.0503 77° East 431 496 37,000  Level Denver Center
Fri 10:54:40 PM 41.3706 -103.8767 77° East 431 496 37,000  Level Denver Center
Fri 10:55:41 PM 41.3969 -103.7269 77° East 434 499 37,000  Level Denver Center
Fri 10:56:43 PM 41.4267 -103.5528 77° East 435 501 37,000  Level Denver Center
Fri 10:57:44 PM 41.4522 -103.4039 77° East 433 498 37,000  Level Denver Center
Fri 10:58:46 PM 41.4817 -103.2294 77° East 434 499 37,000  Level Denver Center
Fri 10:59:47 PM 41.5050 -103.0811 78° East 430 495 37,000  Level Denver Center
Fri 11:00:49 PM 41.5303 -102.9322 77° East 431 496 37,000  Level Denver Center
Fri 11:01:50 PM 41.5592 -102.7569 78° East 433 498 37,000  Level Denver Center
Fri 11:02:52 PM 41.5867 -102.5914 77° East 431 496 37,000  Level Denver Center
Fri 11:03:53 PM 41.6114 -102.4406 78° East 432 497 37,000  Level Denver Center
Fri 11:04:55 PM 41.6347 -102.2900 78° East 432 497 37,000  Level Denver Center
Fri 11:05:56 PM 41.6628 -102.1133 78° East 434 499 37,000  Level Denver Center
Fri 11:06:58 PM 41.6869 -101.9622 78° East 434 499 37,000 146 Level Denver Center
Fri 11:07:59 PM 41.7150 -101.7853 78° East 434 499 37,300 344 Climbing Denver Center
Fri 11:09:00 PM 41.7336 -101.6583 79° East 434 499 37,700 488 Climbing Denver Center
Fri 11:10:02 PM 41.7608 -101.4814 78° East 434 499 38,300 537 Climbing Denver Center
Fri 11:11:03 PM 41.7875 -101.3039 79° East 434 499 38,800 341 Climbing Denver Center
Fri 11:12:05 PM 41.8103 -101.1506 79° East 437 503 39,000 98 Climbing Denver Center
Fri 11:13:06 PM 41.8364 -100.9711 79° East 438 504 39,000  Level Denver Center
Fri 11:14:08 PM 41.8597 -100.8183 78° East 437 503 39,000  Level Denver Center
Fri 11:15:09 PM 41.8822 -100.6639 79° East 438 504 39,000  Level Denver Center
Fri 11:16:10 PM 41.9072 -100.4850 79° East 437 503 39,000  Level Denver Center
Fri 11:17:12 PM 41.9289 -100.3289 79° East 441 507 39,000  Level Denver Center
Fri 11:18:13 PM 41.9539 -100.1506 79° East 437 503 39,000  Level Denver Center
Fri 11:19:15 PM 41.9758 -99.9950 79° East 439 505 39,000  Level Denver Center
Fri 11:20:16 PM 41.9972 -99.8408 79° East 439 505 39,000  Level Denver Center
Fri 11:21:18 PM 42.0144 -99.6744 82° East 444 511 39,000  Level Denver Center
Fri 11:22:19 PM 42.0283 -99.5083 84° East 445 512 39,000  Level Denver Center
Fri 11:23:20 PM 42.0414 -99.3442 84° East 442 509 39,000  Level Denver Center
Fri 11:24:22 PM 42.0547 -99.1778 84° East 446 513 39,000  Level Denver Center
Fri 11:25:23 PM 42.0700 -98.9794 84° East 442 509 39,000 -195 Level Denver Center
Fri 11:26:25 PM 42.0825 -98.8106 84° East 448 516 38,600 -976 Descending Denver Center
Fri 11:27:26 PM 42.0942 -98.6467 84° East 443 510 37,000 -1,967 Descending Denver Center
Fri 11:28:27 PM 42.1058 -98.4889 84° East 426 490 34,600 -2,732 Descending Denver Center
Fri 11:29:29 PM 42.1186 -98.3314 84° East 426 490 31,400 -1,756 Descending Minneapolis Center
Fri 11:30:30 PM 42.1306 -98.1667 84° East 438 504 31,000 -197 Descending Minneapolis Center
Fri 11:31:31 PM 42.1408 -97.9944 85° East 455 524 31,000  Level Minneapolis Center
Fri 11:32:32 PM 42.1528 -97.8233 85° East 458 527 31,000  Level Minneapolis Center
Fri 11:33:33 PM 42.1653 -97.6469 84° East 455 524 31,000  Level Minneapolis Center
Fri 11:34:34 PM 42.1758 -97.4775 85° East 455 524 31,000  Level Minneapolis Center
Fri 11:35:35 PM 42.1867 -97.3067 85° East 456 525 31,000  Level Minneapolis Center
Fri 11:36:36 PM 42.1969 -97.1364 85° East 457 526 31,000  Level Minneapolis Center
Fri 11:37:37 PM 42.2058 -96.9658 86° East 455 524 31,000  Level Minneapolis Center
Fri 11:38:38 PM 42.2161 -96.7950 85° East 455 524 31,000  Level Minneapolis Center
Fri 11:39:39 PM 42.2261 -96.6250 85° East 455 524 31,000  Level Minneapolis Center
Fri 11:40:40 PM 42.2358 -96.4519 86° East 459 528 31,000  Level Minneapolis Center
Fri 11:41:41 PM 42.2425 -96.3136 86° East 460 529 31,000  Level Minneapolis Center
Fri 11:42:42 PM 42.2539 -96.1081 86° East 458 527 31,000  Level Minneapolis Center
Fri 11:43:43 PM 42.2622 -95.9347 86° East 460 529 31,000  Level Minneapolis Center
Fri 11:44:44 PM 42.2708 -95.7619 86° East 461 531 31,000  Level Minneapolis Center
Fri 11:45:45 PM 42.2808 -95.5542 86° East 460 529 31,000  Level Minneapolis Center
Fri 11:46:46 PM 42.2878 -95.3800 87° East 463 533 31,000  Level Minneapolis Center
Fri 11:47:46 PM 42.2958 -95.2047 86° East 466 536 31,000  Level Minneapolis Center
Fri 11:48:47 PM 42.3033 -95.0294 87° East 467 537 31,000  Level Minneapolis Center
Fri 11:49:48 PM 42.3106 -94.8531 87° East 469 540 31,000  Level Minneapolis Center
Fri 11:50:49 PM 42.3178 -94.6761 87° East 471 542 31,000  Level Minneapolis Center
Fri 11:51:50 PM 42.3231 -94.4986 88° East 472 543 31,000  Level Minneapolis Center
Fri 11:52:50 PM 42.3314 -94.3200 86° East 473 544 31,000  Level Minneapolis Center
Fri 11:53:51 PM 42.3431 -94.1428 85° East 472 543 31,000 295 Level Minneapolis Center
Fri 11:54:52 PM 42.3544 -93.9653 85° East 477 549 31,600 639 Climbing Minneapolis Center
Fri 11:55:53 PM 42.3658 -93.7883 85° East 478 550 32,300 689 Climbing Minneapolis Center
Fri 11:56:54 PM 42.3769 -93.6136 85° East 473 544 33,000 347 Climbing Minneapolis Center
Fri 11:57:54 PM 42.3872 -93.4397 85° East 469 540 33,000  Level Minneapolis Center
Fri 11:58:55 PM 42.3922 -93.2644 88° East 471 542 33,000  Level Minneapolis Center
Fri 11:59:56 PM 42.3950 -93.0878 89° East 474 545 33,000 -316 Level Minneapolis Center
Sat 12:01:08 AM 42.3972 -92.8792 89° East 468 539 32,300 -1,714 Descending Minneapolis Center
Sat 12:02:09 AM 42.4000 -92.6714 89° East 465 535 29,200 -1,478 Descending Minneapolis Center
Sat 12:03:22 AM 42.4022 -92.4969 89° East 468 539 29,000 -90 Descending Minneapolis Center
Sat 12:04:23 AM 42.4044 -92.2861 89° East 472 543 29,000  Level Minneapolis Center
Sat 12:05:23 AM 42.4053 -92.1092 90° East 475 547 29,000  Level Minneapolis Center
Sat 12:05:48 AM 42.4061 -92.0358 89° East 478 550 29,000  Level Chicago Center
Sat 12:06:48 AM 42.4083 -91.8614 89° East 475 547 29,000  Level Chicago Center
Sat 12:07:49 AM 42.4075 -91.6872 90° East 473 544 29,000  Level Chicago Center
Sat 12:08:50 AM 42.4086 -91.5092 89° East 481 554 29,000  Level Chicago Center
Sat 12:09:50 AM 42.4094 -91.2953 90° East 483 556 29,000  Level Chicago Center
Sat 12:10:51 AM 42.4081 -91.1175 91° East 483 556 29,000  Level Chicago Center
Sat 12:11:51 AM 42.4075 -90.9369 90° East 487 560 29,000  Level Chicago Center
Sat 12:12:52 AM 42.4069 -90.7575 90° East 484 557 29,000  Level Chicago Center
Sat 12:13:52 AM 42.4050 -90.5764 91° East 487 560 29,000  Level Chicago Center
Sat 12:14:53 AM 42.4047 -90.3944 90° East 489 563 29,000 -99 Level Chicago Center
Sat 12:15:53 AM 42.4033 -90.2111 91° East 491 565 28,800 -550 Descending Chicago Center
Sat 12:16:53 AM 42.4008 -90.0333 91° East 477 549 27,900 -992 Descending Chicago Center
Sat 12:17:54 AM 42.3983 -89.8347 91° East 480 552 26,800 -1,488 Descending Chicago Center
Sat 12:18:54 AM 42.3961 -89.6553 91° East 479 551 24,900 -1,438 Descending Chicago Center
Sat 12:19:55 AM 42.3942 -89.4928 91° East 440 506 23,900 -1,736 Descending Chicago Center
Sat 12:20:55 AM 42.3914 -89.3403 91° East 411 473 21,400 -2,450 Descending Chicago Center
Sat 12:21:55 AM 42.3886 -89.1917 91° East 398 458 19,000 -2,281 Descending Chicago Center
Sat 12:22:56 AM 42.3864 -89.0514 91° East 379 436 16,800 -2,430 Descending Chicago Center
Sat 12:23:56 AM 42.3833 -88.9161 92° East 365 420 14,100 -2,529 Descending Chicago Center
Sat 12:24:57 AM 42.3814 -88.7875 91° East 345 397 11,700 -2,132 Descending Chicago Center
Sat 12:25:57 AM 42.3672 -88.6764 100° East 302 348 9,800 -1,350 Descending Chicago Center
Sat 12:26:57 AM 42.3419 -88.5731 108° East 290 334 9,000 -496 Descending Chicago Center
Sat 12:27:58 AM 42.3175 -88.4703 108° East 291 335 8,800 -942 Descending Chicago Center
Sat 12:28:58 AM 42.2931 -88.3714 108° East 283 326 7,100 -1,587 Descending Chicago Center
Sat 12:29:59 AM 42.2744 -88.2672 104° East 284 327 5,600 -1,240 Descending Chicago Center
Sat 12:30:59 AM 42.2383 -88.1825 120° Southeast 273 314 4,600 -800 Descending Chicago Center
Sat 12:31:59 AM 42.1894 -88.1286 141° Southeast 235 270 4,000 -298 Descending Chicago Center
Sat 12:33:00 AM 42.1464 -88.0775 139° Southeast 214 246 4,000 -298 Level Chicago Center
Sat 12:34:00 AM 42.1078 -88.0347 141° Southeast 194 223 3,400 -837 Descending Chicago Center
Sat 12:34:26 AM 42.0833 -88.0167 151° Southeast 178 205 2,800 -1,385 Descending Chicago TRACON

Login

Don't have an account? Register now (free) for customized features, flight alerts, and more!